Norient Star — 9HRV9 — position and weather

sailwx.info

Track history (hours):
 
Tides and Currents Weather Stations Pressure Air Temp Water Temp Dewpoint Dewpoint Depression Visibility Wind Speed Wind Dir Waves Ship Positions

Norient Star

Last reported at 2016-May-06 21:33 UTC. Time now 2016-May-27 08:22 UTC.
Position N 02°12' E 101°59'.
Warning: this ship's position is 20 days out of date.

Length 180 m; draft 7.3 m.

Type: Tanker. MMSI: 249434000.

Date/timePositionNaut miles runAvg speedWind from/ knotsBaromVisibWave heightAir tempDewpointWater temp
2016-May-06 21:33N 02°12' E 101°59'1110.3
2016-May-06 20:30N 02°05' E 102°07'1211.9
2016-May-06 19:29N 01°57' E 102°16'1212.3
2016-May-06 18:32N 01°52' E 102°27'1212.3
2016-May-06 17:32N 01°46' E 102°38'6210.3
2016-May-06 11:30N 01°13' E 103°31'1313.6
2016-May-06 10:33N 01°09' E 103°43'8 7.4
2016-May-06 09:31N 01°11' E 103°50'1111.9
2016-May-06 08:33N 01°04' E 103°41'1010.2
2016-May-06 07:32N 01°09' E 103°32'8 7.6
2016-May-06 06:32N 01°13' E 103°39'0 0.1
2016-May-06 05:29N 01°13' E 103°39'0 0.1
2016-May-06 04:29N 01°13' E 103°39'0 0.0
2016-May-06 02:14N 01°13' E 103°39'1 2.0
2016-May-06 01:33N 01°14' E 103°39'4 0.2
2016-May-05 07:33N 01°18' E 103°39'0 0.0
2016-May-05 06:21N 01°18' E 103°39'0 0.0
2016-May-05 05:27N 01°18' E 103°39'0 0.0
2016-May-04 08:12N 01°18' E 103°39'0 0.0
2016-May-03 02:07N 01°18' E 103°39'0 0.0
2016-May-03 01:07N 01°18' E 103°39'0 0.0
2016-May-02 11:05N 01°18' E 103°39'0 0.0
2016-May-02 08:15N 01°18' E 103°39'0 0.0
2016-May-02 03:24N 01°18' E 103°39'0 0.0
2016-May-02 02:15N 01°18' E 103°39'0 0.0
2016-May-02 01:18N 01°18' E 103°39'0 0.0
2016-May-01 23:12N 01°18' E 103°39'  
Track history (hours):
 
Tides and Currents Weather Stations Pressure Air Temp Water Temp Dewpoint Dewpoint Depression Visibility Wind Speed Wind Dir Waves Ship Positions

Norient Star

Last reported at 2016-May-06 21:33 UTC. Time now 2016-May-27 08:22 UTC.
Position N 02°12' E 101°59'.
Warning: this ship's position is 20 days out of date.

Length 180 m; draft 7.3 m.

Type: Tanker. MMSI: 249434000.

Date/timePositionNaut miles runAvg speedWind from/ knotsBaromVisibWave heightAir tempDewpointWater temp
2016-May-06 21:33N 02°12' E 101°59'1110.3
2016-May-06 20:30N 02°05' E 102°07'1211.9
2016-May-06 19:29N 01°57' E 102°16'1212.3
2016-May-06 18:32N 01°52' E 102°27'1212.3
2016-May-06 17:32N 01°46' E 102°38'6210.3
2016-May-06 11:30N 01°13' E 103°31'1313.6
2016-May-06 10:33N 01°09' E 103°43'8 7.4
2016-May-06 09:31N 01°11' E 103°50'1111.9
2016-May-06 08:33N 01°04' E 103°41'1010.2
2016-May-06 07:32N 01°09' E 103°32'8 7.6
2016-May-06 06:32N 01°13' E 103°39'0 0.1
2016-May-06 05:29N 01°13' E 103°39'0 0.1
2016-May-06 04:29N 01°13' E 103°39'0 0.0
2016-May-06 02:14N 01°13' E 103°39'1 2.0
2016-May-06 01:33N 01°14' E 103°39'4 0.2
2016-May-05 07:33N 01°18' E 103°39'0 0.0
2016-May-05 06:21N 01°18' E 103°39'0 0.0
2016-May-05 05:27N 01°18' E 103°39'0 0.0
2016-May-04 08:12N 01°18' E 103°39'0 0.0
2016-May-03 02:07N 01°18' E 103°39'0 0.0
2016-May-03 01:07N 01°18' E 103°39'0 0.0
2016-May-02 11:05N 01°18' E 103°39'0 0.0
2016-May-02 08:15N 01°18' E 103°39'0 0.0
2016-May-02 03:24N 01°18' E 103°39'0 0.0
2016-May-02 02:15N 01°18' E 103°39'0 0.0
2016-May-02 01:18N 01°18' E 103°39'0 0.0
2016-May-01 23:12N 01°18' E 103°39'  

Dump ship's entire track history